createdAt,value
2023-01-18T00:00:40.353Z,48.50
2023-01-18T00:03:12.995Z,48.50
2023-01-18T00:05:43.817Z,49.10
2023-01-18T00:08:13.794Z,49.40
2023-01-18T00:10:42.766Z,48.90
2023-01-18T00:13:10.961Z,48.60
2023-01-18T00:15:39.725Z,48.40
2023-01-18T00:18:07.665Z,47.90
2023-01-18T00:20:36.244Z,48.40
2023-01-18T00:23:05.506Z,48.40
2023-01-18T00:25:33.427Z,47.90
2023-01-18T00:28:01.322Z,48.50
2023-01-18T00:30:29.726Z,48.10
2023-01-18T00:32:59.442Z,47.60
2023-01-18T00:35:27.748Z,47.70
2023-01-18T00:37:55.680Z,47.70
2023-01-18T00:40:25.858Z,47.40
2023-01-18T00:43:11.295Z,47.50
2023-01-18T00:45:40.934Z,47.60
2023-01-18T00:48:12.119Z,47.70
2023-01-18T00:50:40.043Z,47.90
2023-01-18T00:53:08.051Z,47.70
2023-01-18T00:55:37.441Z,47.40
2023-01-18T00:58:05.401Z,47.40
2023-01-18T01:00:33.762Z,47.10
2023-01-18T01:03:01.977Z,46.70
2023-01-18T01:05:47.334Z,46.10
2023-01-18T01:08:17.762Z,46.00
2023-01-18T01:10:48.626Z,46.40
2023-01-18T01:13:35.952Z,46.90
2023-01-18T01:16:24.684Z,47.80
2023-01-18T01:19:10.816Z,47.90
2023-01-18T01:21:57.118Z,49.00
2023-01-18T01:24:43.276Z,48.60
2023-01-18T01:27:13.733Z,49.00
2023-01-18T01:29:41.740Z,49.50
2023-01-18T01:32:09.904Z,50.10
2023-01-18T01:34:37.847Z,50.50
2023-01-18T01:37:06.460Z,51.20
2023-01-18T01:39:34.388Z,51.00
2023-01-18T01:42:02.436Z,51.40
2023-01-18T01:44:51.262Z,51.80
2023-01-18T01:47:27.821Z,52.30
2023-01-18T01:49:59.212Z,52.00
2023-01-18T01:52:30.774Z,52.20
2023-01-18T01:55:02.092Z,52.90
2023-01-18T01:57:32.488Z,52.40
2023-01-18T02:00:05.233Z,53.10
2023-01-18T02:02:41.634Z,53.30
2023-01-18T02:05:13.490Z,53.10
2023-01-18T02:07:41.674Z,52.40
2023-01-18T02:10:10.592Z,53.00
2023-01-18T02:12:41.102Z,52.50
2023-01-18T02:15:11.676Z,52.70
2023-01-18T02:17:56.666Z,52.60
2023-01-18T02:20:44.471Z,53.40
2023-01-18T02:23:44.645Z,53.30
2023-01-18T02:26:50.229Z,53.90
2023-01-18T02:29:25.249Z,55.10
2023-01-18T02:32:11.194Z,54.40
2023-01-18T02:34:42.232Z,54.60
2023-01-18T02:37:17.765Z,54.30
2023-01-18T02:39:53.416Z,54.20
2023-01-18T02:42:40.999Z,54.30
2023-01-18T02:45:35.804Z,53.80
2023-01-18T02:48:04.960Z,53.50
2023-01-18T02:50:32.898Z,53.60
2023-01-18T02:53:01.068Z,53.50
2023-01-18T02:55:44.926Z,52.90
2023-01-18T02:58:18.140Z,52.30
2023-01-18T03:00:53.940Z,51.10
2023-01-18T03:03:23.966Z,51.10
2023-01-18T03:05:54.521Z,51.40
2023-01-18T03:08:26.139Z,52.10
2023-01-18T03:11:01.045Z,51.90
2023-01-18T03:13:54.738Z,52.10
2023-01-18T03:16:27.754Z,51.80
2023-01-18T03:19:01.477Z,51.00
2023-01-18T03:21:42.657Z,50.70
2023-01-18T03:24:11.450Z,49.80
2023-01-18T03:26:43.295Z,49.10
2023-01-18T03:29:31.489Z,48.80
2023-01-18T03:32:23.023Z,48.40
2023-01-18T03:34:55.709Z,47.90
2023-01-18T03:37:29.074Z,48.20
2023-01-18T03:40:01.677Z,48.10
2023-01-18T03:42:33.274Z,47.70
2023-01-18T03:45:09.598Z,47.80
2023-01-18T03:47:39.191Z,48.20
2023-01-18T03:50:07.651Z,48.50
2023-01-18T03:52:41.781Z,48.50
2023-01-18T03:55:16.985Z,48.40
2023-01-18T03:57:50.104Z,48.40
2023-01-18T04:00:19.292Z,49.30
2023-01-18T04:02:50.357Z,49.90
2023-01-18T04:05:19.110Z,50.50
2023-01-18T04:07:47.049Z,50.90
2023-01-18T04:10:15.057Z,51.30
2023-01-18T04:12:43.020Z,51.40
2023-01-18T04:15:11.846Z,51.50
2023-01-18T04:17:40.151Z,51.90
2023-01-18T04:20:10.983Z,51.80
2023-01-18T04:22:38.926Z,52.30
2023-01-18T04:25:07.695Z,52.60
2023-01-18T04:27:35.615Z,52.30
2023-01-18T04:30:06.208Z,52.30
2023-01-18T04:32:34.564Z,52.90
2023-01-18T04:35:02.512Z,52.20
2023-01-18T04:37:33.983Z,52.00
2023-01-18T04:40:05.324Z,52.00
2023-01-18T04:42:33.421Z,51.90
2023-01-18T04:45:01.581Z,52.20
2023-01-18T04:47:29.950Z,52.70
2023-01-18T04:49:58.352Z,52.60
2023-01-18T04:52:27.096Z,51.60
2023-01-18T04:54:56.406Z,51.60
2023-01-18T04:57:24.375Z,51.90
2023-01-18T04:59:52.473Z,51.70
2023-01-18T05:02:20.450Z,51.50
2023-01-18T05:04:48.428Z,51.60
2023-01-18T05:07:16.465Z,50.40
2023-01-18T05:09:46.659Z,49.60
2023-01-18T05:12:17.862Z,50.20
2023-01-18T05:14:45.783Z,49.40
2023-01-18T05:17:13.773Z,49.00
2023-01-18T05:19:42.046Z,48.90
2023-01-18T05:22:09.945Z,49.00
2023-01-18T05:24:37.863Z,49.00
2023-01-18T05:27:05.979Z,48.90
2023-01-18T05:29:35.440Z,48.80
2023-01-18T05:32:03.343Z,48.20
2023-01-18T05:34:31.284Z,47.30
2023-01-18T05:36:59.899Z,46.70
2023-01-18T05:39:27.775Z,46.40
2023-01-18T05:41:55.805Z,45.60
2023-01-18T05:44:23.825Z,45.20
2023-01-18T05:46:53.131Z,44.80
2023-01-18T05:49:21.199Z,44.40
2023-01-18T05:51:49.160Z,44.10
2023-01-18T05:54:17.114Z,43.80
2023-01-18T05:56:45.029Z,43.60
2023-01-18T05:59:14.455Z,43.30
2023-01-18T06:01:43.449Z,43.50
2023-01-18T06:04:12.756Z,43.70
2023-01-18T06:06:40.708Z,43.70
2023-01-18T06:09:08.816Z,43.30
2023-01-18T06:11:36.792Z,43.30
2023-01-18T06:14:04.730Z,43.00
2023-01-18T06:16:32.714Z,43.60
2023-01-18T06:19:00.634Z,43.40
2023-01-18T06:21:32.218Z,43.40
2023-01-18T06:24:00.193Z,43.20
2023-01-18T06:26:30.532Z,43.30
2023-01-18T06:28:58.674Z,43.20
2023-01-18T06:31:26.603Z,43.20
2023-01-18T06:33:54.612Z,43.00
2023-01-18T06:36:22.602Z,42.90
2023-01-18T06:38:51.887Z,42.90
2023-01-18T06:41:19.830Z,43.10
2023-01-18T06:43:47.730Z,43.10
2023-01-18T06:46:15.875Z,43.10
2023-01-18T06:48:43.816Z,43.30
2023-01-18T06:51:12.430Z,43.20
2023-01-18T06:53:40.722Z,43.30
2023-01-18T06:56:11.749Z,43.30
2023-01-18T06:58:39.738Z,43.10
2023-01-18T07:01:08.520Z,43.60
2023-01-18T07:03:36.542Z,43.30
2023-01-18T07:06:06.260Z,43.00
2023-01-18T07:08:36.433Z,44.20
2023-01-18T07:11:10.784Z,44.00
2023-01-18T07:13:40.199Z,44.60
2023-01-18T07:16:09.398Z,44.20
2023-01-18T07:18:37.371Z,43.70
2023-01-18T07:21:07.959Z,43.80
2023-01-18T07:23:37.302Z,44.50
2023-01-18T07:26:07.112Z,44.30
2023-01-18T07:28:37.478Z,44.10
2023-01-18T07:31:07.963Z,44.40
2023-01-18T07:33:38.944Z,45.10
2023-01-18T07:36:09.583Z,46.40
2023-01-18T07:38:38.592Z,45.60
2023-01-18T07:41:09.144Z,45.40
2023-01-18T07:43:38.972Z,45.90
2023-01-18T07:46:09.357Z,46.40
2023-01-18T07:48:38.997Z,46.30
2023-01-18T07:51:09.313Z,45.80
2023-01-18T07:53:38.959Z,45.30
2023-01-18T07:56:11.948Z,44.60
2023-01-18T07:58:44.203Z,44.40
2023-01-18T08:01:15.128Z,44.10
2023-01-18T08:03:44.063Z,43.90
2023-01-18T08:06:18.855Z,43.70
2023-01-18T08:08:46.882Z,44.40
2023-01-18T08:11:15.031Z,44.00
2023-01-18T08:13:44.328Z,43.60
2023-01-18T08:16:13.293Z,43.40
2023-01-18T08:18:41.635Z,43.30
2023-01-18T08:21:11.626Z,43.20
2023-01-18T08:23:40.184Z,42.90
2023-01-18T08:26:10.003Z,43.10
2023-01-18T08:28:38.243Z,43.10
2023-01-18T08:31:11.271Z,43.20
2023-01-18T08:33:41.070Z,43.30
2023-01-18T08:36:14.118Z,43.20
2023-01-18T08:38:47.907Z,42.80
2023-01-18T08:41:15.850Z,42.70
2023-01-18T08:43:44.122Z,42.90
2023-01-18T08:46:13.407Z,43.60
2023-01-18T08:48:41.893Z,43.80
2023-01-18T08:51:09.811Z,43.40
2023-01-18T08:53:37.736Z,43.80
2023-01-18T08:56:06.752Z,44.40
2023-01-18T08:58:34.987Z,44.10
2023-01-18T09:01:06.004Z,43.60
2023-01-18T09:03:36.194Z,43.40
2023-01-18T09:06:06.064Z,43.40
2023-01-18T09:08:33.980Z,43.30
2023-01-18T09:11:03.414Z,43.20
2023-01-18T09:13:31.377Z,43.00
2023-01-18T09:16:00.934Z,43.10
2023-01-18T09:18:29.995Z,42.90
2023-01-18T09:20:59.782Z,42.80
2023-01-18T09:23:27.792Z,42.70
2023-01-18T09:26:03.040Z,42.60
2023-01-18T09:28:31.191Z,42.50
2023-01-18T09:31:01.619Z,42.30
2023-01-18T09:33:37.530Z,42.40
2023-01-18T09:36:10.369Z,42.40
2023-01-18T09:38:39.527Z,42.60
2023-01-18T09:41:18.961Z,42.80
2023-01-18T09:43:51.084Z,42.90
2023-01-18T09:46:21.056Z,43.10
2023-01-18T09:48:54.809Z,42.60
2023-01-18T09:51:27.985Z,43.30
2023-01-18T09:54:11.764Z,43.80
2023-01-18T09:56:45.730Z,43.60
2023-01-18T09:59:22.308Z,43.80
2023-01-18T10:01:53.811Z,43.50
2023-01-18T10:04:30.035Z,43.90
2023-01-18T10:07:02.057Z,44.20
2023-01-18T10:09:39.841Z,44.50
2023-01-18T10:12:21.799Z,46.20
2023-01-18T10:14:54.249Z,46.90
2023-01-18T10:17:24.985Z,47.60
2023-01-18T10:19:53.150Z,47.70
2023-01-18T10:22:28.072Z,48.20
2023-01-18T10:25:03.398Z,49.20
2023-01-18T10:27:53.571Z,50.00
2023-01-18T10:30:56.675Z,50.20
2023-01-18T10:33:26.906Z,50.60
2023-01-18T10:36:03.195Z,51.80
2023-01-18T10:38:33.159Z,50.90
2023-01-18T10:41:02.777Z,51.70
2023-01-18T10:43:32.772Z,52.20
2023-01-18T10:46:00.905Z,53.00
2023-01-18T10:48:31.519Z,52.90
2023-01-18T10:51:01.058Z,53.80
2023-01-18T10:53:33.025Z,54.20
2023-01-18T10:56:04.743Z,53.60
2023-01-18T10:58:38.539Z,54.40
2023-01-18T11:01:06.934Z,54.30
2023-01-18T11:03:46.328Z,54.20
2023-01-18T11:06:16.994Z,54.40
2023-01-18T11:08:46.298Z,54.50
2023-01-18T11:11:20.096Z,54.60
2023-01-18T11:13:49.159Z,54.00
2023-01-18T11:16:21.835Z,53.70
2023-01-18T11:18:59.336Z,53.10
2023-01-18T11:21:31.565Z,54.20
2023-01-18T11:24:07.629Z,55.20
2023-01-18T11:26:35.787Z,55.50
2023-01-18T11:29:06.856Z,56.70
2023-01-18T11:31:46.215Z,56.40
2023-01-18T11:34:25.993Z,56.00
2023-01-18T11:36:54.066Z,54.90
2023-01-18T11:39:32.392Z,55.40
2023-01-18T11:42:21.535Z,55.60
2023-01-18T11:44:58.496Z,56.00
2023-01-18T11:47:32.352Z,56.30
2023-01-18T11:50:21.069Z,57.40
2023-01-18T11:52:53.028Z,58.40
2023-01-18T11:55:31.253Z,58.80
2023-01-18T11:58:00.808Z,59.10
2023-01-18T12:00:33.129Z,58.90
2023-01-18T12:03:27.398Z,58.10
2023-01-18T12:06:03.745Z,58.50
2023-01-18T12:08:54.901Z,59.50
2023-01-18T12:11:45.832Z,59.70
2023-01-18T12:14:29.464Z,59.30
2023-01-18T12:17:20.711Z,58.00
2023-01-18T12:20:00.460Z,58.10
2023-01-18T12:22:55.537Z,57.80
2023-01-18T12:25:47.026Z,58.20
2023-01-18T12:28:33.084Z,59.00
2023-01-18T12:31:15.870Z,58.60
2023-01-18T12:33:53.542Z,58.20
2023-01-18T12:36:41.237Z,59.40
2023-01-18T12:39:23.078Z,60.70
2023-01-18T12:41:58.355Z,61.50
2023-01-18T12:44:49.122Z,62.20
2023-01-18T12:47:36.045Z,62.00
2023-01-18T12:50:08.968Z,60.90
2023-01-18T12:52:43.847Z,59.60
2023-01-18T12:55:20.979Z,58.60
2023-01-18T12:57:52.196Z,58.80
2023-01-18T13:00:26.276Z,60.10
2023-01-18T13:02:57.959Z,60.80
2023-01-18T13:05:35.160Z,61.20
2023-01-18T13:08:09.102Z,61.70
2023-01-18T13:10:40.564Z,61.80
2023-01-18T13:13:13.101Z,61.40
2023-01-18T13:15:48.978Z,60.10
2023-01-18T13:18:24.137Z,59.60
2023-01-18T13:21:13.982Z,60.60
2023-01-18T13:23:53.667Z,59.10
2023-01-18T13:26:25.598Z,58.90
2023-01-18T13:29:25.710Z,59.30
2023-01-18T13:31:55.791Z,60.00
2023-01-18T13:34:29.810Z,59.80
2023-01-18T13:37:13.517Z,59.60
2023-01-18T13:39:47.102Z,59.40
2023-01-18T13:42:26.844Z,59.90
2023-01-18T13:45:18.246Z,59.40
2023-01-18T13:47:54.030Z,58.80
2023-01-18T13:50:42.264Z,57.80
2023-01-18T13:53:24.685Z,57.60
2023-01-18T13:56:29.353Z,57.00
2023-01-18T13:59:04.168Z,56.10
2023-01-18T14:01:36.296Z,54.80
2023-01-18T14:04:25.223Z,54.20
2023-01-18T14:06:54.698Z,53.60
2023-01-18T14:09:39.745Z,54.20
2023-01-18T14:12:08.524Z,53.30
2023-01-18T14:14:55.677Z,52.20
2023-01-18T14:17:25.610Z,52.60
2023-01-18T14:20:26.018Z,51.70
2023-01-18T14:23:07.890Z,51.10
2023-01-18T14:25:57.760Z,51.80
2023-01-18T14:28:31.574Z,51.20
2023-01-18T14:31:01.706Z,50.50
2023-01-18T14:33:34.629Z,50.20
2023-01-18T14:36:06.859Z,50.00
2023-01-18T14:38:34.893Z,49.40
2023-01-18T14:41:07.331Z,50.00
2023-01-18T14:43:42.630Z,49.30
2023-01-18T14:46:15.997Z,48.60
2023-01-18T14:48:51.430Z,49.30
2023-01-18T14:51:23.675Z,49.80
2023-01-18T14:53:54.582Z,50.40
2023-01-18T14:56:24.714Z,50.80
2023-01-18T14:58:54.825Z,50.90
2023-01-18T15:01:32.484Z,51.20
2023-01-18T15:04:02.346Z,50.90
2023-01-18T15:06:40.306Z,50.00
2023-01-18T15:09:09.996Z,49.60
2023-01-18T15:11:39.751Z,49.50
2023-01-18T15:14:11.317Z,49.00
2023-01-18T15:16:40.142Z,49.00
2023-01-18T15:19:14.567Z,48.70
2023-01-18T15:21:46.080Z,49.00
2023-01-18T15:24:18.431Z,48.60
2023-01-18T15:26:51.613Z,47.90
2023-01-18T15:29:21.296Z,47.00
2023-01-18T15:31:53.311Z,47.00
2023-01-18T15:34:28.246Z,46.50
2023-01-18T15:37:00.256Z,46.90
2023-01-18T15:39:28.263Z,47.60
2023-01-18T15:41:58.382Z,47.60
2023-01-18T15:44:40.710Z,47.30
2023-01-18T15:47:16.785Z,48.10
2023-01-18T15:49:46.774Z,48.50
2023-01-18T15:52:16.557Z,48.10
2023-01-18T15:54:44.618Z,48.00
2023-01-18T15:57:15.160Z,47.60
2023-01-18T15:59:43.722Z,47.20
2023-01-18T16:02:22.758Z,46.70
2023-01-18T16:05:08.157Z,46.10
2023-01-18T16:08:15.892Z,45.50
2023-01-18T16:10:50.706Z,44.90
2023-01-18T16:13:37.227Z,44.40
2023-01-18T16:16:17.134Z,44.60
2023-01-18T16:18:47.340Z,44.40
2023-01-18T16:21:32.647Z,44.40
2023-01-18T16:24:01.983Z,44.00
2023-01-18T16:26:31.486Z,44.80
2023-01-18T16:29:07.358Z,44.90
2023-01-18T16:31:36.509Z,44.30
2023-01-18T16:34:22.090Z,44.60
2023-01-18T16:36:51.364Z,44.70
2023-01-18T16:39:23.225Z,44.30
2023-01-18T16:41:57.904Z,44.00
2023-01-18T16:44:27.582Z,44.10
2023-01-18T16:46:55.898Z,43.70
2023-01-18T16:49:23.868Z,43.90
2023-01-18T16:51:51.842Z,44.40
2023-01-18T16:54:21.482Z,44.20
2023-01-18T16:56:50.152Z,44.20
2023-01-18T16:59:19.651Z,43.90
2023-01-18T17:01:47.809Z,43.70
2023-01-18T17:04:16.452Z,43.80
2023-01-18T17:06:45.312Z,45.00
2023-01-18T17:09:22.277Z,45.00
2023-01-18T17:11:51.311Z,44.70
2023-01-18T17:14:20.153Z,45.60
2023-01-18T17:16:49.674Z,45.30
2023-01-18T17:19:22.721Z,45.20
2023-01-18T17:21:51.911Z,45.00
2023-01-18T17:24:22.066Z,44.90
2023-01-18T17:26:50.573Z,44.60
2023-01-18T17:29:21.240Z,45.30
2023-01-18T17:31:52.503Z,45.30
2023-01-18T17:34:27.764Z,45.00
2023-01-18T17:36:58.824Z,45.70
2023-01-18T17:39:42.493Z,46.20
2023-01-18T17:42:16.407Z,45.90
2023-01-18T17:44:46.828Z,45.90
2023-01-18T17:47:15.565Z,45.70
2023-01-18T17:49:43.511Z,45.50
2023-01-18T17:52:11.893Z,45.40
2023-01-18T17:54:41.130Z,45.40
2023-01-18T17:57:09.134Z,45.00
2023-01-18T17:59:37.436Z,44.40
2023-01-18T18:02:05.409Z,44.30
2023-01-18T18:04:33.474Z,43.90
2023-01-18T18:07:01.446Z,43.90
2023-01-18T18:09:29.406Z,43.30
2023-01-18T18:11:58.690Z,43.00
2023-01-18T18:14:27.017Z,42.70
2023-01-18T18:16:54.973Z,42.80
2023-01-18T18:19:25.337Z,42.90
2023-01-18T18:21:55.426Z,43.40
2023-01-18T18:24:23.402Z,43.30
2023-01-18T18:26:51.519Z,43.50
2023-01-18T18:29:20.960Z,43.80
2023-01-18T18:31:48.913Z,43.90
2023-01-18T18:34:17.596Z,43.40
2023-01-18T18:36:45.542Z,43.50
2023-01-18T18:39:13.453Z,43.70
2023-01-18T18:41:43.875Z,44.00
2023-01-18T18:44:11.875Z,44.80
2023-01-18T18:46:41.258Z,44.90
2023-01-18T18:49:09.472Z,44.30
2023-01-18T18:51:37.459Z,43.60
2023-01-18T18:54:05.747Z,44.10
2023-01-18T18:56:34.046Z,43.80
2023-01-18T18:59:01.997Z,43.60
2023-01-18T19:01:30.655Z,43.80
2023-01-18T19:04:03.231Z,42.90
2023-01-18T19:06:31.219Z,42.80
2023-01-18T19:08:59.166Z,42.70
2023-01-18T19:11:27.251Z,42.90
2023-01-18T19:13:56.627Z,43.00
2023-01-18T19:16:24.870Z,43.90
2023-01-18T19:18:52.826Z,44.80
2023-01-18T19:21:22.107Z,45.60
2023-01-18T19:23:50.355Z,46.40
2023-01-18T19:26:18.912Z,46.70
2023-01-18T19:28:47.459Z,46.90
2023-01-18T19:31:15.627Z,46.50
2023-01-18T19:33:43.600Z,45.80
2023-01-18T19:36:14.152Z,45.20
2023-01-18T19:38:48.019Z,44.60
2023-01-18T19:41:20.202Z,44.70
2023-01-18T19:43:51.684Z,44.30
2023-01-18T19:46:20.184Z,43.80
2023-01-18T19:48:48.215Z,43.40
2023-01-18T19:51:22.271Z,43.10
2023-01-18T19:53:53.602Z,43.30
2023-01-18T19:56:21.630Z,43.10
2023-01-18T19:58:52.132Z,43.10
2023-01-18T20:01:35.129Z,43.20
2023-01-18T20:04:04.331Z,43.70
2023-01-18T20:06:32.291Z,43.70
2023-01-18T20:09:01.874Z,44.90
2023-01-18T20:11:30.714Z,44.30
2023-01-18T20:13:58.628Z,45.70
2023-01-18T20:16:26.660Z,46.70
2023-01-18T20:18:54.787Z,46.40
2023-01-18T20:21:22.714Z,45.10
2023-01-18T20:23:51.012Z,45.10
2023-01-18T20:26:34.892Z,44.60
2023-01-18T20:29:06.268Z,44.80
2023-01-18T20:31:35.854Z,45.90
2023-01-18T20:34:04.653Z,45.50
2023-01-18T20:36:34.666Z,45.50
2023-01-18T20:39:02.619Z,44.80
2023-01-18T20:41:31.975Z,44.30
2023-01-18T20:44:00.313Z,43.70
2023-01-18T20:46:28.352Z,43.10
2023-01-18T20:48:59.237Z,43.00
2023-01-18T20:51:27.272Z,42.50
2023-01-18T20:53:55.226Z,42.40
2023-01-18T20:56:29.174Z,42.40
2023-01-18T20:58:59.286Z,43.10
2023-01-18T21:01:32.034Z,44.00
2023-01-18T21:04:02.060Z,45.10
2023-01-18T21:06:30.324Z,44.80
2023-01-18T21:08:59.764Z,45.00
2023-01-18T21:11:28.306Z,44.70
2023-01-18T21:13:59.838Z,43.90
2023-01-18T21:16:28.514Z,43.90
2023-01-18T21:18:58.814Z,43.60
2023-01-18T21:21:29.243Z,43.40
2023-01-18T21:23:57.554Z,43.20
2023-01-18T21:26:25.502Z,43.70
2023-01-18T21:28:53.407Z,43.00
2023-01-18T21:31:23.004Z,43.00
2023-01-18T21:33:50.940Z,43.10
2023-01-18T21:36:20.027Z,43.20
2023-01-18T21:38:47.975Z,44.10
2023-01-18T21:41:33.926Z,44.30
2023-01-18T21:44:19.452Z,43.80
2023-01-18T21:46:53.618Z,43.70
2023-01-18T21:52:47.239Z,44.20
2023-01-18T21:55:16.569Z,43.30
2023-01-18T21:57:44.785Z,43.10
2023-01-18T22:00:13.708Z,42.90
2023-01-18T22:02:43.024Z,43.80
2023-01-18T22:05:13.036Z,43.60
2023-01-18T22:07:40.935Z,43.70
2023-01-18T22:10:10.114Z,43.80
2023-01-18T22:12:38.994Z,43.40
2023-01-18T22:15:07.872Z,43.50
2023-01-18T22:17:35.781Z,43.70
2023-01-18T22:20:05.700Z,43.30
2023-01-18T22:22:33.647Z,43.40
2023-01-18T22:25:02.197Z,43.10
2023-01-18T22:27:30.572Z,43.20
2023-01-18T22:30:00.430Z,42.90
2023-01-18T22:32:31.145Z,44.30
2023-01-18T22:34:59.281Z,45.60
2023-01-18T22:37:31.215Z,44.70
2023-01-18T22:39:59.122Z,44.20
2023-01-18T22:42:29.789Z,44.30
2023-01-18T22:44:57.947Z,43.90
2023-01-18T22:47:25.851Z,43.80
2023-01-18T22:49:54.042Z,44.00
2023-01-18T22:52:21.972Z,44.00
2023-01-18T22:54:54.365Z,44.30
2023-01-18T22:57:22.282Z,44.80
2023-01-18T22:59:50.229Z,45.00
2023-01-18T23:02:18.324Z,45.10
2023-01-18T23:04:50.965Z,44.80
2023-01-18T23:07:18.922Z,44.80
2023-01-18T23:09:46.848Z,44.90
2023-01-18T23:12:16.171Z,45.10
2023-01-18T23:15:01.757Z,44.40
2023-01-18T23:17:44.921Z,44.30
2023-01-18T23:20:14.846Z,44.20
2023-01-18T23:22:44.601Z,43.60
2023-01-18T23:25:12.574Z,44.10
2023-01-18T23:27:42.000Z,44.20
2023-01-18T23:30:11.531Z,45.10
2023-01-18T23:32:39.496Z,44.80
2023-01-18T23:35:08.532Z,44.60
2023-01-18T23:37:38.255Z,44.50
2023-01-18T23:40:25.298Z,43.80
2023-01-18T23:43:12.968Z,43.70
2023-01-18T23:45:58.594Z,43.60
2023-01-18T23:48:44.241Z,44.30
2023-01-18T23:51:29.869Z,44.20
2023-01-18T23:54:16.857Z,44.60
2023-01-18T23:56:45.776Z,45.10
2023-01-18T23:59:15.048Z,45.00
